createdAt,value
2017-12-28T00:00:01.314Z,93243.16
2017-12-28T00:02:28.900Z,93234.72
2017-12-28T00:04:56.480Z,93234.52
2017-12-28T00:07:24.053Z,93234.25
2017-12-28T00:09:52.366Z,93241.53
2017-12-28T00:12:19.964Z,93238.37
2017-12-28T00:14:47.523Z,93241.77
2017-12-28T00:17:15.127Z,93249.95
2017-12-28T00:19:42.687Z,93242.45
2017-12-28T00:22:10.354Z,93240.57
2017-12-28T00:24:37.929Z,93256.89
2017-12-28T00:27:05.653Z,93251.77
2017-12-28T00:29:33.199Z,93254.42
2017-12-28T00:32:00.784Z,93251.47
2017-12-28T00:34:28.347Z,93252.03
2017-12-28T00:36:55.946Z,93251.39
2017-12-28T00:39:23.520Z,93251.11
2017-12-28T00:41:51.106Z,93248.25
2017-12-28T00:44:18.644Z,93254.03
2017-12-28T00:46:46.242Z,93272.73
2017-12-28T00:49:19.683Z,93285.70
2017-12-28T00:51:47.295Z,93285.44
2017-12-28T00:54:14.877Z,93283.48
2017-12-28T00:56:42.437Z,93288.93
2017-12-28T00:59:10.040Z,93295.89
2017-12-28T01:01:37.617Z,93288.54
2017-12-28T01:04:05.179Z,93286.97
2017-12-28T01:06:32.810Z,93280.91
2017-12-28T01:09:00.376Z,93290.97
2017-12-28T01:11:27.971Z,93284.29
2017-12-28T01:13:55.567Z,93285.58
2017-12-28T01:16:23.113Z,93286.86
2017-12-28T01:18:50.673Z,93291.83
2017-12-28T01:21:18.277Z,93299.83
2017-12-28T01:23:45.852Z,93297.60
2017-12-28T01:26:13.401Z,93302.88
2017-12-28T01:28:41.002Z,93305.81
2017-12-28T01:31:08.763Z,93310.62
2017-12-28T01:33:36.335Z,93330.68
2017-12-28T01:36:04.431Z,93333.45
2017-12-28T01:38:31.992Z,93334.20
2017-12-28T01:40:59.535Z,93338.33
2017-12-28T01:43:27.193Z,93343.56
2017-12-28T01:45:54.736Z,93341.13
2017-12-28T01:48:22.322Z,93346.61
2017-12-28T01:50:49.905Z,93343.77
2017-12-28T01:53:17.472Z,93344.37
2017-12-28T01:55:45.037Z,93347.70
2017-12-28T01:58:12.644Z,93348.58
2017-12-28T02:00:40.190Z,93350.13
2017-12-28T02:03:07.953Z,93344.88
2017-12-28T02:05:35.609Z,93351.30
2017-12-28T02:08:03.178Z,93350.63
2017-12-28T02:10:30.739Z,93347.87
2017-12-28T02:12:58.338Z,93344.94
2017-12-28T02:15:25.893Z,93358.07
2017-12-28T02:17:58.437Z,93349.70
2017-12-28T02:20:26.035Z,93357.28
2017-12-28T02:22:53.576Z,93357.02
2017-12-28T02:25:21.165Z,93349.88
2017-12-28T02:27:48.736Z,93348.54
2017-12-28T02:30:16.296Z,93346.75
2017-12-28T02:32:43.898Z,93357.98
2017-12-28T02:35:11.817Z,93356.86
2017-12-28T02:37:39.395Z,93357.98
2017-12-28T02:40:06.968Z,93349.36
2017-12-28T02:42:34.502Z,93351.42
2017-12-28T02:45:03.605Z,93359.16
2017-12-28T02:47:31.559Z,93362.49
2017-12-28T02:49:59.110Z,93361.09
2017-12-28T02:52:26.823Z,93368.19
2017-12-28T02:54:54.388Z,93355.37
2017-12-28T02:57:21.942Z,93361.81
2017-12-28T02:59:49.510Z,93360.46
2017-12-28T03:02:18.490Z,93366.27
2017-12-28T03:04:46.037Z,93361.25
2017-12-28T03:07:13.967Z,93377.66
2017-12-28T03:09:41.729Z,93367.56
2017-12-28T03:12:09.284Z,93381.45
2017-12-28T03:14:36.850Z,93379.06
2017-12-28T03:17:06.399Z,93368.27
2017-12-28T03:19:34.055Z,93379.41
2017-12-28T03:22:01.609Z,93382.20
2017-12-28T03:24:29.162Z,93386.58
2017-12-28T03:26:56.722Z,93388.20
2017-12-28T03:29:24.265Z,93401.33
2017-12-28T03:31:51.803Z,93397.09
2017-12-28T03:34:19.691Z,93396.81
2017-12-28T03:36:47.265Z,93384.66
2017-12-28T03:39:15.264Z,93388.38
2017-12-28T03:42:06.052Z,93381.26
2017-12-28T03:44:34.709Z,93386.33
2017-12-28T03:47:02.774Z,93391.86
2017-12-28T03:49:30.524Z,93392.59
2017-12-28T03:51:58.062Z,93405.22
2017-12-28T03:54:26.222Z,93398.55
2017-12-28T03:56:54.389Z,93407.13
2017-12-28T03:59:21.945Z,93411.27
2017-12-28T04:01:49.488Z,93423.48
2017-12-28T04:04:17.048Z,93418.89
2017-12-28T04:06:44.587Z,93396.99
2017-12-28T04:09:12.441Z,93405.16
2017-12-28T04:11:39.994Z,93410.80
2017-12-28T04:14:07.533Z,93406.00
2017-12-28T04:16:35.090Z,93407.95
2017-12-28T04:19:02.646Z,93401.02
2017-12-28T04:21:30.224Z,93410.08
2017-12-28T04:23:57.767Z,93421.03
2017-12-28T04:26:26.152Z,93416.97
2017-12-28T04:28:53.723Z,93426.55
2017-12-28T04:31:21.267Z,93439.49
2017-12-28T04:33:48.812Z,93417.83
2017-12-28T04:36:16.392Z,93414.72
2017-12-28T04:38:43.946Z,93416.24
2017-12-28T04:41:11.503Z,93421.29
2017-12-28T04:43:39.114Z,93429.28
2017-12-28T04:46:06.669Z,93425.67
2017-12-28T04:48:34.230Z,93427.61
2017-12-28T04:51:01.841Z,93431.72
2017-12-28T04:53:29.464Z,93443.48
2017-12-28T04:55:57.038Z,93445.83
2017-12-28T04:58:24.905Z,93450.78
2017-12-28T05:00:52.441Z,93463.08
2017-12-28T05:03:19.982Z,93481.16
2017-12-28T05:05:47.555Z,93490.64
2017-12-28T05:08:15.098Z,93472.33
2017-12-28T05:10:42.636Z,93473.85
2017-12-28T05:13:10.686Z,93479.76
2017-12-28T05:15:38.397Z,93462.95
2017-12-28T05:18:06.044Z,93468.52
2017-12-28T05:20:33.594Z,93485.45
2017-12-28T05:23:01.158Z,93490.50
2017-12-28T05:25:28.740Z,93483.95
2017-12-28T05:27:56.272Z,93496.49
2017-12-28T05:30:23.799Z,93497.35
2017-12-28T05:32:51.348Z,93488.59
2017-12-28T05:35:18.881Z,93496.69
2017-12-28T05:37:46.416Z,93522.00
2017-12-28T05:40:14.142Z,93502.73
2017-12-28T05:42:41.708Z,93498.34
2017-12-28T05:45:09.660Z,93505.47
2017-12-28T05:47:37.312Z,93511.64
2017-12-28T05:50:04.880Z,93524.05
2017-12-28T05:52:32.428Z,93525.31
2017-12-28T05:54:59.989Z,93520.27
2017-12-28T05:57:28.618Z,93531.11
2017-12-28T05:59:56.156Z,93547.52
2017-12-28T06:02:23.717Z,93555.09
2017-12-28T06:04:51.243Z,93545.91
2017-12-28T06:07:18.886Z,93557.34
2017-12-28T06:09:46.436Z,93558.88
2017-12-28T06:12:14.041Z,93562.31
2017-12-28T06:14:41.575Z,93571.02
2017-12-28T06:17:09.424Z,93582.64
2017-12-28T06:19:36.978Z,93573.35
2017-12-28T06:22:04.527Z,93587.69
2017-12-28T06:24:32.064Z,93598.55
2017-12-28T06:26:59.619Z,93591.11
2017-12-28T06:29:27.158Z,93605.45
2017-12-28T06:31:54.692Z,93597.69
2017-12-28T06:34:22.645Z,93611.50
2017-12-28T06:36:50.246Z,93619.70
2017-12-28T06:39:17.781Z,93619.02
2017-12-28T06:41:45.300Z,93621.95
2017-12-28T06:44:12.862Z,93625.12
2017-12-28T06:46:40.443Z,93626.11
2017-12-28T06:49:08.173Z,93642.02
2017-12-28T06:51:35.721Z,93626.92
2017-12-28T06:54:03.296Z,93628.00
2017-12-28T06:56:30.817Z,93640.67
2017-12-28T06:58:58.298Z,93644.27
2017-12-28T07:01:25.804Z,93656.81
2017-12-28T07:03:54.626Z,93648.87
2017-12-28T07:06:22.169Z,93651.31
2017-12-28T07:08:49.744Z,93648.73
2017-12-28T07:11:17.273Z,93647.48
2017-12-28T07:13:44.803Z,93638.86
2017-12-28T07:16:13.694Z,93649.88
2017-12-28T07:18:41.381Z,93642.70
2017-12-28T07:21:09.882Z,93641.30
2017-12-28T07:23:37.910Z,93642.83
2017-12-28T07:26:05.685Z,93645.68
2017-12-28T07:28:33.216Z,93680.26
2017-12-28T07:31:00.733Z,93678.59
2017-12-28T07:33:28.292Z,93690.19
2017-12-28T07:35:55.835Z,93686.91
2017-12-28T07:38:23.367Z,93685.92
2017-12-28T07:40:50.929Z,93694.48
2017-12-28T07:43:18.470Z,93700.80
2017-12-28T07:45:46.009Z,93695.96
2017-12-28T07:51:04.072Z,93695.61
2017-12-28T07:53:31.632Z,93695.69
2017-12-28T07:55:59.157Z,93701.65
2017-12-28T07:58:26.690Z,93716.48
2017-12-28T08:00:54.286Z,93717.08
2017-12-28T08:03:21.823Z,93721.41
2017-12-28T08:05:49.382Z,93741.34
2017-12-28T08:08:16.935Z,93752.89
2017-12-28T08:10:44.484Z,93749.52
2017-12-28T08:13:12.394Z,93753.95
2017-12-28T08:15:40.574Z,93755.44
2017-12-28T08:18:08.101Z,93757.11
2017-12-28T08:20:35.620Z,93773.00
2017-12-28T08:23:03.202Z,93775.39
2017-12-28T08:25:31.820Z,93765.55
2017-12-28T08:27:59.343Z,93780.84
2017-12-28T08:30:26.878Z,93775.66
2017-12-28T08:32:54.442Z,93774.27
2017-12-28T08:35:22.137Z,93781.80
2017-12-28T08:37:49.778Z,93774.54
2017-12-28T08:40:17.341Z,93783.25
2017-12-28T08:42:44.879Z,93791.78
2017-12-28T08:45:12.405Z,93805.81
2017-12-28T08:47:40.015Z,93808.34
2017-12-28T08:50:07.547Z,93811.69
2017-12-28T08:52:35.023Z,93815.08
2017-12-28T08:55:02.533Z,93819.67
2017-12-28T08:57:31.436Z,93825.31
2017-12-28T08:59:58.940Z,93826.25
2017-12-28T09:02:26.513Z,93823.64
2017-12-28T09:04:54.057Z,93830.10
2017-12-28T09:07:21.613Z,93823.23
2017-12-28T09:09:49.187Z,93813.94
2017-12-28T09:12:16.720Z,93820.41
2017-12-28T09:14:44.279Z,93819.11
2017-12-28T09:17:12.120Z,93814.27
2017-12-28T09:19:39.666Z,93811.75
2017-12-28T09:22:07.228Z,93803.09
2017-12-28T09:24:34.777Z,93811.95
2017-12-28T09:27:02.445Z,93827.81
2017-12-28T09:29:30.044Z,93819.11
2017-12-28T09:31:57.613Z,93812.80
2017-12-28T09:34:25.896Z,93826.82
2017-12-28T09:36:53.447Z,93838.62
2017-12-28T09:39:20.985Z,93825.34
2017-12-28T09:41:48.539Z,93830.77
2017-12-28T09:44:16.082Z,93824.54
2017-12-28T09:46:43.618Z,93834.46
2017-12-28T09:49:11.762Z,93826.53
2017-12-28T09:51:39.356Z,93823.00
2017-12-28T09:54:07.075Z,93804.22
2017-12-28T09:56:34.640Z,93802.78
2017-12-28T09:59:02.196Z,93788.55
2017-12-28T10:01:29.727Z,93797.77
2017-12-28T10:03:57.290Z,93799.56
2017-12-28T10:06:24.831Z,93793.06
2017-12-28T10:11:42.652Z,93822.31
2017-12-28T10:14:10.297Z,93819.25
2017-12-28T10:16:37.831Z,93826.61
2017-12-28T10:19:05.458Z,93824.69
2017-12-28T10:21:33.006Z,93841.22
2017-12-28T10:24:00.528Z,93827.63
2017-12-28T10:26:28.531Z,93836.43
2017-12-28T10:28:56.079Z,93847.03
2017-12-28T10:31:23.618Z,93845.19
2017-12-28T10:33:51.175Z,93838.64
2017-12-28T10:36:18.754Z,93840.05
2017-12-28T10:38:46.279Z,93841.80
2017-12-28T10:41:13.822Z,93851.92
2017-12-28T10:43:41.343Z,93850.39
2017-12-28T10:46:08.892Z,93857.56
2017-12-28T10:48:36.470Z,93862.22
2017-12-28T10:51:03.996Z,93855.63
2017-12-28T10:53:31.519Z,93858.78
2017-12-28T10:55:59.082Z,93858.11
2017-12-28T10:58:26.623Z,93857.25
2017-12-28T11:00:54.152Z,93863.17
2017-12-28T11:03:21.716Z,93875.59
2017-12-28T11:05:49.244Z,93884.12
2017-12-28T11:08:16.779Z,93882.78
2017-12-28T11:10:44.321Z,93891.17
2017-12-28T11:13:12.305Z,93887.20
2017-12-28T11:15:39.841Z,93879.08
2017-12-28T11:18:08.905Z,93886.13
2017-12-28T11:20:36.496Z,93883.91
2017-12-28T11:23:04.012Z,93883.55
2017-12-28T11:25:31.535Z,93880.98
2017-12-28T11:27:59.086Z,93879.57
2017-12-28T11:30:26.620Z,93878.67
2017-12-28T11:32:54.155Z,93880.28
2017-12-28T11:35:21.700Z,93878.00
2017-12-28T11:37:49.215Z,93856.13
2017-12-28T11:40:16.734Z,93866.37
2017-12-28T11:42:44.277Z,93873.30
2017-12-28T11:45:11.841Z,93859.59
2017-12-28T11:47:39.409Z,93863.45
2017-12-28T11:50:11.100Z,93873.33
2017-12-28T11:52:48.991Z,93875.00
2017-12-28T11:55:20.372Z,93881.65
2017-12-28T11:57:53.397Z,93881.78
2017-12-28T12:00:26.533Z,93896.42
2017-12-28T12:02:59.666Z,93888.34
2017-12-28T12:05:27.303Z,93892.67
2017-12-28T12:10:50.644Z,93899.17
2017-12-28T12:13:18.169Z,93902.84
2017-12-28T12:15:45.702Z,93904.69
2017-12-28T12:18:13.272Z,93910.16
2017-12-28T12:23:31.118Z,93922.18
2017-12-28T12:25:58.682Z,93924.61
2017-12-28T12:28:26.272Z,93931.75
2017-12-28T12:30:53.829Z,93929.03
2017-12-28T12:33:21.395Z,93937.09
2017-12-28T12:35:48.949Z,93934.37
2017-12-28T12:38:16.513Z,93942.47
2017-12-28T12:40:44.076Z,93947.39
2017-12-28T12:43:11.814Z,93949.47
2017-12-28T12:45:39.623Z,93945.48
2017-12-28T12:48:07.177Z,93940.73
2017-12-28T12:50:34.707Z,93943.71
2017-12-28T12:53:02.324Z,93948.94
2017-12-28T12:55:29.865Z,93943.13
2017-12-28T12:57:57.422Z,93951.43
2017-12-28T13:00:24.987Z,93946.86
2017-12-28T13:02:52.540Z,93935.89
2017-12-28T13:05:20.088Z,93934.77
2017-12-28T13:07:47.653Z,93939.27
2017-12-28T13:10:15.219Z,93941.20
2017-12-28T13:12:42.778Z,93924.63
2017-12-28T13:15:10.526Z,93917.91
2017-12-28T13:17:38.102Z,93910.77
2017-12-28T13:20:05.678Z,93919.05
2017-12-28T13:22:33.238Z,93921.42
2017-12-28T13:25:00.814Z,93921.97
2017-12-28T13:27:28.399Z,93924.96
2017-12-28T13:29:55.993Z,93929.20
2017-12-28T13:32:23.609Z,93944.38
2017-12-28T13:34:51.210Z,93945.95
2017-12-28T13:37:18.780Z,93950.88
2017-12-28T13:39:46.332Z,93954.87
2017-12-28T13:42:14.108Z,93961.73
2017-12-28T13:44:41.644Z,93963.11
2017-12-28T13:47:09.509Z,93970.47
2017-12-28T13:49:37.104Z,93979.73
2017-12-28T13:52:04.658Z,93971.40
2017-12-28T13:54:32.228Z,93980.17
2017-12-28T13:56:59.819Z,93976.06
2017-12-28T13:59:27.356Z,93967.66
2017-12-28T14:01:54.900Z,93975.80
2017-12-28T14:04:22.491Z,93982.11
2017-12-28T14:06:50.039Z,93984.64
2017-12-28T14:09:17.597Z,93984.59
2017-12-28T14:11:45.215Z,93983.51
2017-12-28T14:14:12.750Z,93991.38
2017-12-28T14:16:40.318Z,93998.16
2017-12-28T14:19:08.071Z,94000.37
2017-12-28T14:21:35.670Z,94003.89
2017-12-28T14:24:03.253Z,94005.70
2017-12-28T14:26:30.796Z,94014.00
2017-12-28T14:28:58.389Z,94010.94
2017-12-28T14:31:26.392Z,94006.97
2017-12-28T14:33:53.936Z,94007.23
2017-12-28T14:36:21.500Z,94018.94
2017-12-28T14:38:49.063Z,94029.16
2017-12-28T14:41:16.628Z,94043.56
2017-12-28T14:43:44.188Z,94047.89
2017-12-28T14:46:11.759Z,94050.67
2017-12-28T14:48:39.319Z,94061.48
2017-12-28T14:51:06.908Z,94060.21
2017-12-28T14:53:34.467Z,94057.85
2017-12-28T14:56:02.032Z,94054.16
2017-12-28T14:58:29.609Z,94054.95
2017-12-28T15:00:57.162Z,94056.29
2017-12-28T15:03:24.985Z,94053.12
2017-12-28T15:05:52.561Z,94052.91
2017-12-28T15:08:20.487Z,94059.22
2017-12-28T15:10:48.622Z,94059.53
2017-12-28T15:13:16.198Z,94065.63
2017-12-28T15:15:43.750Z,94076.50
2017-12-28T15:18:11.288Z,94071.11
2017-12-28T15:20:38.877Z,94083.60
2017-12-28T15:23:06.486Z,94089.07
2017-12-28T15:25:34.038Z,94088.89
2017-12-28T15:28:02.414Z,94086.96
2017-12-28T15:30:30.233Z,94088.91
2017-12-28T15:32:57.783Z,94095.32
2017-12-28T15:35:25.381Z,94096.88
2017-12-28T15:37:53.326Z,94099.52
2017-12-28T15:40:20.967Z,94103.72
2017-12-28T15:42:48.580Z,94101.20
2017-12-28T15:45:16.174Z,94114.20
2017-12-28T15:47:43.717Z,94114.86
2017-12-28T15:50:11.309Z,94125.37
2017-12-28T15:52:38.962Z,94116.66
2017-12-28T15:55:06.656Z,94119.88
2017-12-28T15:57:34.233Z,94122.66
2017-12-28T16:00:01.785Z,94129.54
2017-12-28T16:02:29.349Z,94133.16
2017-12-28T16:04:56.924Z,94138.30
2017-12-28T16:07:24.959Z,94144.41
2017-12-28T16:09:52.524Z,94152.84
2017-12-28T16:12:20.115Z,94145.63
2017-12-28T16:14:47.810Z,94152.03
2017-12-28T16:17:15.366Z,94147.22
2017-12-28T16:19:42.911Z,94158.94
2017-12-28T16:22:10.484Z,94167.38
2017-12-28T16:24:38.017Z,94170.64
2017-12-28T16:27:05.828Z,94187.13
2017-12-28T16:29:33.462Z,94186.88
2017-12-28T16:32:00.999Z,94180.53
2017-12-28T16:34:28.552Z,94185.67
2017-12-28T16:36:56.120Z,94193.25
2017-12-28T16:39:23.665Z,94190.14
2017-12-28T16:41:51.236Z,94201.13
2017-12-28T16:44:18.806Z,94208.17
2017-12-28T16:46:46.349Z,94212.12
2017-12-28T16:49:13.907Z,94220.58
2017-12-28T16:51:41.462Z,94221.66
2017-12-28T16:54:09.032Z,94226.08
2017-12-28T16:56:39.581Z,94228.67
2017-12-28T16:59:07.143Z,94234.64
2017-12-28T17:01:34.687Z,94238.94
2017-12-28T17:04:02.430Z,94250.98
2017-12-28T17:06:30.078Z,94251.27
2017-12-28T17:08:57.657Z,94260.95
2017-12-28T17:11:25.209Z,94264.45
2017-12-28T17:13:52.787Z,94271.39
2017-12-28T17:16:20.355Z,94264.79
2017-12-28T17:18:47.917Z,94279.39
2017-12-28T17:21:15.489Z,94279.64
2017-12-28T17:26:33.246Z,94283.99
2017-12-28T17:29:01.722Z,94281.10
2017-12-28T17:31:29.270Z,94288.52
2017-12-28T17:33:56.864Z,94306.59
2017-12-28T17:36:24.415Z,94305.78
2017-12-28T17:38:51.972Z,94310.45
2017-12-28T17:41:19.577Z,94316.42
2017-12-28T17:43:47.138Z,94314.41
2017-12-28T17:46:14.722Z,94322.70
2017-12-28T17:48:42.267Z,94323.52
2017-12-28T17:51:10.205Z,94328.09
2017-12-28T17:53:38.577Z,94333.95
2017-12-28T17:56:06.083Z,94331.25
2017-12-28T17:58:33.716Z,94333.66
2017-12-28T18:01:01.231Z,94349.05
2017-12-28T18:03:28.797Z,94350.83
2017-12-28T18:05:56.369Z,94357.14
2017-12-28T18:08:23.927Z,94365.53
2017-12-28T18:10:51.474Z,94373.95
2017-12-28T18:13:19.133Z,94382.97
2017-12-28T18:15:46.706Z,94388.36
2017-12-28T18:18:14.271Z,94393.45
2017-12-28T18:20:41.892Z,94401.70
2017-12-28T18:23:09.466Z,94406.55
2017-12-28T18:25:37.030Z,94409.93
2017-12-28T18:28:04.616Z,94416.35
2017-12-28T18:30:32.178Z,94412.49
2017-12-28T18:33:00.729Z,94417.51
2017-12-28T18:35:28.350Z,94428.64
2017-12-28T18:37:55.925Z,94431.35
2017-12-28T18:40:23.495Z,94434.58
2017-12-28T18:42:51.045Z,94441.34
2017-12-28T18:45:18.593Z,94448.05
2017-12-28T18:47:46.142Z,94454.41
2017-12-28T18:50:13.728Z,94455.85
2017-12-28T18:52:41.275Z,94455.81
2017-12-28T18:55:08.956Z,94464.46
2017-12-28T18:57:36.552Z,94470.70
2017-12-28T19:00:04.661Z,94474.41
2017-12-28T19:02:32.240Z,94480.16
2017-12-28T19:04:59.845Z,94482.80
2017-12-28T19:07:27.410Z,94485.88
2017-12-28T19:09:54.993Z,94495.45
2017-12-28T19:12:22.611Z,94498.45
2017-12-28T19:14:50.149Z,94495.71
2017-12-28T19:17:17.741Z,94508.00
2017-12-28T19:19:45.288Z,94509.70
2017-12-28T19:22:12.863Z,94507.59
2017-12-28T19:24:40.445Z,94513.97
2017-12-28T19:27:08.061Z,94512.30
2017-12-28T19:29:35.617Z,94518.34
2017-12-28T19:32:03.188Z,94524.59
2017-12-28T19:34:30.761Z,94526.00
2017-12-28T19:36:58.313Z,94533.58
2017-12-28T19:39:25.873Z,94532.12
2017-12-28T19:41:53.541Z,94540.69
2017-12-28T19:44:21.083Z,94548.03
2017-12-28T19:46:48.628Z,94551.92
2017-12-28T19:49:16.318Z,94556.30
2017-12-28T19:51:43.847Z,94550.84
2017-12-28T19:54:11.396Z,94554.48
2017-12-28T19:56:38.964Z,94562.88
2017-12-28T19:59:06.531Z,94567.17
2017-12-28T20:01:34.072Z,94566.77
2017-12-28T20:04:01.638Z,94565.59
2017-12-28T20:06:29.190Z,94571.27
2017-12-28T20:08:56.719Z,94572.30
2017-12-28T20:11:24.326Z,94570.48
2017-12-28T20:13:51.841Z,94580.19
2017-12-28T20:16:19.417Z,94586.05
2017-12-28T20:18:47.002Z,94588.06
2017-12-28T20:21:14.593Z,94594.06
2017-12-28T20:23:42.143Z,94591.33
2017-12-28T20:26:09.804Z,94601.64
2017-12-28T20:28:37.350Z,94602.39
2017-12-28T20:31:04.951Z,94607.80
2017-12-28T20:33:32.492Z,94612.17
2017-12-28T20:36:00.054Z,94609.61
2017-12-28T20:38:27.608Z,94610.36
2017-12-28T20:40:55.143Z,94615.96
2017-12-28T20:43:24.617Z,94621.11
2017-12-28T20:45:52.152Z,94616.44
2017-12-28T20:48:19.921Z,94617.73
2017-12-28T20:50:47.505Z,94618.11
2017-12-28T20:53:15.047Z,94629.05
2017-12-28T20:55:42.642Z,94621.08
2017-12-28T20:58:10.189Z,94629.64
2017-12-28T21:00:37.760Z,94635.19
2017-12-28T21:03:05.413Z,94635.45
2017-12-28T21:05:33.773Z,94624.01
2017-12-28T21:08:01.316Z,94646.65
2017-12-28T21:13:02.725Z,94640.13
2017-12-28T21:15:30.284Z,94646.44
2017-12-28T21:17:57.820Z,94649.48
2017-12-28T21:20:25.354Z,94656.44
2017-12-28T21:22:52.908Z,94659.06
2017-12-28T21:25:20.461Z,94659.81
2017-12-28T21:27:48.050Z,94664.56
2017-12-28T21:30:15.540Z,94672.44
2017-12-28T21:32:46.875Z,94671.58
2017-12-28T21:35:14.377Z,94673.09
2017-12-28T21:37:41.973Z,94672.64
2017-12-28T21:40:09.514Z,94684.06
2017-12-28T21:42:37.108Z,94688.91
2017-12-28T21:45:05.132Z,94686.72
2017-12-28T21:47:32.891Z,94694.94
2017-12-28T21:50:02.268Z,94696.67
2017-12-28T21:52:29.872Z,94707.87
2017-12-28T21:54:57.473Z,94708.98
2017-12-28T21:57:25.091Z,94718.44
2017-12-28T21:59:53.424Z,94714.89
2017-12-28T22:02:21.042Z,94717.69
2017-12-28T22:04:48.606Z,94720.03
2017-12-28T22:07:16.157Z,94720.24
2017-12-28T22:09:43.724Z,94727.64
2017-12-28T22:12:11.297Z,94730.23
2017-12-28T22:14:38.960Z,94730.57
2017-12-28T22:17:06.666Z,94734.70
2017-12-28T22:19:34.228Z,94741.00
2017-12-28T22:22:01.802Z,94745.41
2017-12-28T22:24:29.409Z,94740.19
2017-12-28T22:26:56.958Z,94753.80
2017-12-28T22:29:24.537Z,94752.42
2017-12-28T22:31:52.179Z,94756.86
2017-12-28T22:34:19.750Z,94760.13
2017-12-28T22:36:47.303Z,94755.73
2017-12-28T22:39:14.894Z,94761.39
2017-12-28T22:41:42.459Z,94766.65
2017-12-28T22:44:10.020Z,94769.34
2017-12-28T22:46:37.596Z,94774.08
2017-12-28T22:49:05.220Z,94776.40
2017-12-28T22:51:32.752Z,94786.26
2017-12-28T22:54:00.352Z,94787.52
2017-12-28T22:56:27.892Z,94788.09
2017-12-28T22:58:55.448Z,94792.46
2017-12-28T23:01:23.037Z,94794.92
2017-12-28T23:03:50.603Z,94792.36
2017-12-28T23:06:18.267Z,94797.84
2017-12-28T23:08:45.852Z,94795.63
2017-12-28T23:11:13.394Z,94797.84
2017-12-28T23:13:40.950Z,94806.48
2017-12-28T23:16:08.544Z,94813.60
2017-12-28T23:18:36.094Z,94821.06
2017-12-28T23:21:03.648Z,94826.86
2017-12-28T23:23:31.192Z,94837.46
2017-12-28T23:25:58.746Z,94838.72
2017-12-28T23:28:26.287Z,94847.36
2017-12-28T23:30:53.820Z,94851.81
2017-12-28T23:33:21.410Z,94859.99
2017-12-28T23:35:48.941Z,94864.31
2017-12-28T23:38:17.568Z,94864.97
2017-12-28T23:40:45.148Z,94868.12
2017-12-28T23:43:12.996Z,94870.43
2017-12-28T23:45:43.849Z,94870.55
2017-12-28T23:48:11.406Z,94879.66
2017-12-28T23:50:38.969Z,94883.02
2017-12-28T23:53:06.622Z,94888.80
2017-12-28T23:55:34.163Z,94895.64
2017-12-28T23:58:01.756Z,94900.76
